Time;durP1;ratioP1;P1;durP2;ratioP2;P2;SDS_P1;SDS_P2;PMS_P1;PMS_P2;Temp;Humidity;BMP_temperature;BMP_pressure;BME280_temperature;BME280_humidity;BME280_pressure;Samples;Min_cycle;Max_cycle;Signal;HPM_P1;HPM_P2
2022/04/07 00:01:36;;;;;;;0.40;0.30;;;;;;;11.46;93.10;94762.88;5094251;28;20655;-54
2022/04/07 00:04:06;;;;;;;0.30;0.20;;;;;;;11.05;96.08;94763.72;5093938;28;20490;-54
2022/04/07 00:06:37;;;;;;;0.80;0.77;;;;;;;11.15;93.75;94752.97;5094283;28;20962;-53
2022/04/07 00:09:07;;;;;;;0.30;0.20;;;;;;;11.41;88.94;94731.09;5093633;28;20468;-54
2022/04/07 00:11:35;;;;;;;0.47;0.30;;;;;;;11.47;86.18;94748.53;5094181;28;20800;-54
2022/04/07 00:14:04;;;;;;;0.30;0.30;;;;;;;11.56;83.17;94748.66;5093845;28;20541;-54
2022/04/07 00:16:32;;;;;;;0.30;0.20;;;;;;;11.55;80.91;94741.78;5093643;28;20924;-54
2022/04/07 00:19:01;;;;;;;0.30;0.20;;;;;;;11.17;86.48;94742.88;5093437;28;20429;-53
2022/04/07 00:21:38;;;;;;;0.80;0.30;;;;;;;11.49;85.35;94727.00;5093629;28;20464;-54
2022/04/07 00:24:09;;;;;;;0.40;0.30;;;;;;;11.58;80.13;94732.44;5093353;28;20609;-54
2022/04/07 00:26:37;;;;;;;7.87;0.40;;;;;;;11.33;83.63;94742.34;5093078;28;20452;-54
2022/04/07 00:29:06;;;;;;;0.40;0.30;;;;;;;11.51;83.61;94734.69;5093368;28;20468;-54
2022/04/07 00:31:39;;;;;;;0.30;0.20;;;;;;;11.44;84.83;94704.00;5093380;28;20503;-54
2022/04/07 00:34:10;;;;;;;0.30;0.30;;;;;;;11.59;81.73;94726.03;5093406;28;20492;-54
2022/04/07 00:36:40;;;;;;;0.30;0.20;;;;;;;11.34;77.83;94690.88;5093183;28;20428;-53
2022/04/07 00:39:10;;;;;;;0.30;0.20;;;;;;;11.76;82.96;94727.16;5093227;28;20856;-54
2022/04/07 00:41:39;;;;;;;0.50;0.50;;;;;;;11.85;87.71;94711.31;5093391;28;20515;-54
2022/04/07 00:44:08;;;;;;;0.30;0.20;;;;;;;11.78;83.53;94702.97;5093201;28;20464;-54
2022/04/07 00:46:38;;;;;;;0.30;0.30;;;;;;;11.71;83.46;94707.88;5091811;28;20437;-54
2022/04/07 00:49:08;;;;;;;0.30;0.20;;;;;;;11.46;81.71;94693.88;5092141;28;20456;-54
2022/04/07 00:51:39;;;;;;;2.87;0.30;;;;;;;11.23;84.82;94720.50;5092811;28;20490;-54
2022/04/07 00:54:11;;;;;;;0.30;0.30;;;;;;;10.91;88.09;94725.69;5092815;28;20982;-54
2022/04/07 00:56:42;;;;;;;0.30;0.20;;;;;;;11.01;89.36;94715.75;5093083;28;20428;-54
2022/04/07 00:59:16;;;;;;;0.30;0.20;;;;;;;11.22;86.99;94700.34;5092719;28;20464;-54
2022/04/07 01:01:45;;;;;;;0.30;0.20;;;;;;;11.32;91.09;94686.94;5092156;28;20469;-53
2022/04/07 01:04:15;;;;;;;0.53;0.53;;;;;;;11.45;89.49;94683.56;5092723;28;20464;-54
2022/04/07 01:06:44;;;;;;;0.30;0.20;;;;;;;11.61;86.85;94692.06;5092570;28;20489;-53
2022/04/07 01:09:16;;;;;;;0.40;0.30;;;;;;;10.83;87.96;94629.03;5092406;28;20551;-54
2022/04/07 01:11:45;;;;;;;0.37;0.30;;;;;;;11.27;88.41;94679.84;5092776;28;20511;-54
2022/04/07 01:14:14;;;;;;;0.40;0.40;;;;;;;11.48;86.71;94673.13;5092744;28;20553;-54
2022/04/07 01:16:43;;;;;;;0.30;0.20;;;;;;;11.02;93.95;94669.63;5092400;28;20460;-53
2022/04/07 01:19:11;;;;;;;0.40;0.30;;;;;;;11.12;93.23;94650.91;5092408;28;20431;-54
2022/04/07 01:21:40;;;;;;;0.50;0.50;;;;;;;11.24;91.60;94664.50;5092219;28;20959;-54
2022/04/07 01:24:10;;;;;;;0.30;0.20;;;;;;;11.36;97.06;94633.00;5092239;28;20472;-53
2022/04/07 01:26:42;;;;;;;0.40;0.30;;;;;;;11.33;91.68;94654.81;5092200;28;20831;-54
2022/04/07 01:29:12;;;;;;;0.40;0.30;;;;;;;11.16;94.26;94651.91;5092224;28;20455;-53
2022/04/07 01:31:42;;;;;;;1.80;0.83;;;;;;;11.14;95.69;94603.66;5092276;28;20768;-54
2022/04/07 01:34:14;;;;;;;0.30;0.20;;;;;;;11.37;96.46;94639.91;5092344;28;20433;-53
2022/04/07 01:36:45;;;;;;;0.30;0.20;;;;;;;11.45;95.71;94633.16;5092377;28;20867;-53
2022/04/07 01:39:18;;;;;;;0.50;0.50;;;;;;;10.94;93.80;94648.25;5092287;28;20464;-53
2022/04/07 01:41:47;;;;;;;4.10;0.87;;;;;;;10.75;100.00;94629.72;5092150;28;20421;-54
2022/04/07 01:44:18;;;;;;;0.60;0.60;;;;;;;10.90;100.00;94615.44;5092014;28;20976;-53
2022/04/07 01:46:47;;;;;;;0.40;0.40;;;;;;;10.49;99.85;94509.25;5092197;28;20436;-53
2022/04/07 01:49:17;;;;;;;6.87;0.70;;;;;;;11.29;94.80;94592.00;5091868;28;20429;-54
2022/04/07 01:51:46;;;;;;;0.40;0.40;;;;;;;11.33;90.43;94595.69;5091995;28;20478;-53
2022/04/07 01:54:16;;;;;;;0.40;0.30;;;;;;;11.53;89.38;94603.28;5091842;28;20444;-53
2022/04/07 01:56:45;;;;;;;0.30;0.20;;;;;;;11.39;95.86;94581.22;5091656;28;20479;-53
2022/04/07 01:59:15;;;;;;;1.67;0.70;;;;;;;11.53;100.00;94570.66;5090829;28;20429;-53
2022/04/07 02:01:44;;;;;;;0.30;0.20;;;;;;;11.36;97.40;94581.81;5091625;28;20432;-53
2022/04/07 02:04:13;;;;;;;1.83;0.87;;;;;;;11.33;100.00;94577.88;5091891;28;20878;-53
2022/04/07 02:06:42;;;;;;;0.50;0.30;;;;;;;11.41;99.22;94585.16;5091280;28;20471;-54
2022/04/07 02:09:10;;;;;;;0.30;0.20;;;;;;;11.10;99.05;94570.06;5091255;28;20460;-53
2022/04/07 02:11:41;;;;;;;0.30;0.20;;;;;;;11.15;98.02;94570.78;5091648;28;20460;-53
2022/04/07 02:14:09;;;;;;;0.40;0.40;;;;;;;11.19;100.00;94563.78;5091634;28;20440;-53
2022/04/07 02:16:39;;;;;;;0.57;0.40;;;;;;;11.15;99.71;94565.47;5091885;28;20494;-53
2022/04/07 02:19:08;;;;;;;0.30;0.20;;;;;;;11.14;96.92;94550.63;5090655;28;20431;-53
2022/04/07 02:21:36;;;;;;;0.40;0.30;;;;;;;10.51;100.00;94521.13;5091742;28;20456;-54
2022/04/07 02:24:05;;;;;;;0.40;0.30;;;;;;;10.85;100.00;94529.59;5091804;28;20500;-53
2022/04/07 02:26:34;;;;;;;0.43;0.40;;;;;;;10.76;100.00;94520.75;5091425;28;20486;-53
2022/04/07 02:29:02;;;;;;;0.50;0.50;;;;;;;10.82;100.00;94516.16;5091495;28;20516;-53
2022/04/07 02:31:31;;;;;;;0.30;0.20;;;;;;;10.91;100.00;94513.63;5091070;28;20436;-53
2022/04/07 02:34:00;;;;;;;0.40;0.30;;;;;;;10.77;100.00;94508.28;5091559;28;20462;-52
2022/04/07 02:36:30;;;;;;;0.30;0.20;;;;;;;10.81;100.00;94510.06;5091092;28;20994;-53
2022/04/07 02:38:59;;;;;;;0.50;0.40;;;;;;;11.08;100.00;94504.03;5091295;28;20507;-53
2022/04/07 02:41:33;;;;;;;0.60;0.40;;;;;;;11.30;99.15;94492.81;5091380;28;20428;-53
2022/04/07 02:44:03;;;;;;;0.30;0.30;;;;;;;11.17;100.00;94491.69;5091253;28;20463;-53
2022/04/07 02:46:31;;;;;;;0.60;0.60;;;;;;;11.09;100.00;94508.28;5091350;28;20520;-53
2022/04/07 02:49:01;;;;;;;2.40;0.43;;;;;;;11.10;100.00;94503.78;5091630;28;20503;-53
2022/04/07 02:51:31;;;;;;;0.40;0.40;;;;;;;11.11;100.00;94500.81;5091331;28;20429;-53
2022/04/07 02:53:59;;;;;;;0.30;0.20;;;;;;;11.10;100.00;94503.78;5091139;28;20486;-53
2022/04/07 02:56:29;;;;;;;0.30;0.20;;;;;;;11.11;100.00;94497.38;5091644;28;20428;-53
2022/04/07 02:58:57;;;;;;;0.50;0.40;;;;;;;11.26;100.00;94492.59;5091207;28;20420;-53
2022/04/07 03:01:30;;;;;;;0.40;0.30;;;;;;;11.11;100.00;94476.94;5091147;28;20952;-53
2022/04/07 03:03:59;;;;;;;0.50;0.50;;;;;;;10.99;100.00;94489.09;5091370;28;20428;-52
2022/04/07 03:06:30;;;;;;;0.30;0.20;;;;;;;10.59;100.00;94493.19;5091481;28;20847;-53
2022/04/07 03:08:58;;;;;;;9.73;0.67;;;;;;;10.70;100.00;94482.16;5090952;28;20967;-53
2022/04/07 03:11:26;;;;;;;10.50;0.63;;;;;;;10.83;100.00;94472.66;5094390;28;20845;-53
2022/04/07 03:13:55;;;;;;;0.40;0.37;;;;;;;10.85;100.00;94476.59;5095146;28;20432;-53
2022/04/07 03:16:23;;;;;;;0.40;0.30;;;;;;;10.78;100.00;94478.03;5095052;28;20428;-53
2022/04/07 03:18:50;;;;;;;1.53;1.43;;;;;;;10.60;100.00;94473.59;5094299;28;20451;-53
2022/04/07 03:21:19;;;;;;;0.60;0.57;;;;;;;10.84;100.00;94476.91;5094889;28;20421;-53
2022/04/07 03:23:49;;;;;;;0.93;0.93;;;;;;;10.72;100.00;94464.13;5094681;28;20455;-52
2022/04/07 03:26:17;;;;;;;0.80;0.77;;;;;;;10.75;100.00;94460.84;5094311;28;21015;-52
2022/04/07 03:28:46;;;;;;;0.40;0.20;;;;;;;10.66;100.00;94436.13;5094305;28;20516;-52
2022/04/07 03:31:14;;;;;;;0.83;0.83;;;;;;;10.52;100.00;94450.41;5094673;28;20493;-53
2022/04/07 03:33:44;;;;;;;0.40;0.30;;;;;;;10.13;100.00;94437.47;5094454;28;20420;-53
2022/04/07 03:36:13;;;;;;;0.30;0.23;;;;;;;10.24;100.00;94443.41;5094534;28;20523;-53
2022/04/07 03:38:41;;;;;;;0.40;0.30;;;;;;;10.10;100.00;94438.81;5093866;28;20437;-53
2022/04/07 03:41:11;;;;;;;0.50;0.50;;;;;;;8.82;100.00;94291.09;5094427;28;20489;-53
2022/04/07 03:43:39;;;;;;;1.07;0.70;;;;;;;9.71;100.00;94440.97;5093876;28;20451;-53
2022/04/07 03:46:08;;;;;;;1.73;1.73;;;;;;;9.54;100.00;94436.13;5094015;28;20498;-53
2022/04/07 03:48:36;;;;;;;0.60;0.60;;;;;;;9.48;100.00;94437.28;5094496;28;20458;-53
2022/04/07 03:51:05;;;;;;;6.63;2.13;;;;;;;9.56;100.00;94428.69;5094031;28;20846;-53
2022/04/07 03:53:33;;;;;;;0.40;0.30;;;;;;;9.26;100.00;94423.00;5093957;28;20511;-53
2022/04/07 03:56:03;;;;;;;0.40;0.30;;;;;;;9.43;100.00;94431.25;5094402;28;20424;-53
2022/04/07 03:58:33;;;;;;;0.40;0.40;;;;;;;9.80;100.00;94431.28;5093836;28;20421;-53
2022/04/07 04:01:02;;;;;;;0.50;0.40;;;;;;;9.74;100.00;94427.13;5094154;28;20448;-53
2022/04/07 04:03:31;;;;;;;0.40;0.30;;;;;;;9.73;100.00;94425.59;5094165;28;20440;-54
2022/04/07 04:06:00;;;;;;;0.40;0.37;;;;;;;9.71;100.00;94422.44;5093675;28;21018;-53
2022/04/07 04:08:28;;;;;;;0.30;0.20;;;;;;;9.32;100.00;94430.59;5093371;28;20460;-53
2022/04/07 04:10:57;;;;;;;0.33;0.30;;;;;;;9.39;100.00;94430.22;5092748;28;20515;-53
2022/04/07 04:13:28;;;;;;;0.30;0.27;;;;;;;9.32;100.00;94427.94;5093980;28;20461;-53
2022/04/07 04:15:58;;;;;;;0.40;0.40;;;;;;;9.22;100.00;94411.41;5094172;28;20423;-53
2022/04/07 04:18:27;;;;;;;0.30;0.30;;;;;;;9.49;100.00;94414.25;5093437;28;20432;-53
2022/04/07 04:20:55;;;;;;;2.83;1.27;;;;;;;9.62;100.00;94410.91;5093693;28;20494;-53
2022/04/07 04:23:24;;;;;;;0.60;0.60;;;;;;;9.92;100.00;94407.84;5093844;28;20432;-53
2022/04/07 04:25:52;;;;;;;0.43;0.33;;;;;;;10.06;100.00;94406.06;5093411;28;21069;-53
2022/04/07 04:28:21;;;;;;;0.40;0.30;;;;;;;9.80;100.00;94390.81;5093938;28;20452;-53
2022/04/07 04:30:49;;;;;;;0.60;0.60;;;;;;;10.10;100.00;94393.81;5093823;28;20440;-54
2022/04/07 04:33:19;;;;;;;0.90;0.90;;;;;;;10.03;100.00;94398.69;5093183;28;20858;-53
2022/04/07 04:35:48;;;;;;;6.90;4.20;;;;;;;9.96;100.00;94390.31;5093234;28;20960;-53
2022/04/07 04:38:16;;;;;;;0.60;0.60;;;;;;;9.70;100.00;94393.59;5093239;28;20461;-53
2022/04/07 04:40:44;;;;;;;0.83;0.77;;;;;;;9.94;100.00;94402.28;5093543;28;20511;-52
2022/04/07 04:43:13;;;;;;;0.37;0.30;;;;;;;9.82;100.00;94384.16;5093106;28;20425;-52
2022/04/07 04:45:41;;;;;;;0.60;0.57;;;;;;;9.58;100.00;94384.25;5093016;28;20550;-54
2022/04/07 04:48:10;;;;;;;0.57;0.57;;;;;;;9.63;100.00;94388.69;5093023;28;20431;-53
2022/04/07 04:50:40;;;;;;;2.50;0.83;;;;;;;9.98;100.00;94380.22;5093119;28;20455;-53
2022/04/07 04:53:08;;;;;;;3.67;3.27;;;;;;;10.01;100.00;94378.88;5093198;28;20432;-53
2022/04/07 04:55:36;;;;;;;2.00;0.80;;;;;;;10.42;100.00;94361.28;5093214;28;20999;-53
2022/04/07 04:58:05;;;;;;;1.40;1.30;;;;;;;10.10;100.00;94354.09;5091791;28;20531;-54
2022/04/07 05:00:33;;;;;;;2.10;2.00;;;;;;;10.33;100.00;94368.31;5092815;28;20429;-53
2022/04/07 05:03:02;;;;;;;0.87;0.87;;;;;;;10.48;100.00;94367.25;5092810;28;20507;-54
2022/04/07 05:05:30;;;;;;;8.00;1.80;;;;;;;10.62;100.00;94360.16;5093223;28;20471;-53
2022/04/07 05:08:00;;;;;;;0.80;0.80;;;;;;;10.56;100.00;94356.00;5092845;28;20489;-54
2022/04/07 05:10:29;;;;;;;2.03;1.93;;;;;;;10.45;100.00;94350.09;5092641;28;20491;-53
2022/04/07 05:12:58;;;;;;;1.47;1.40;;;;;;;10.53;100.00;94351.28;5092908;28;20428;-52
2022/04/07 05:15:26;;;;;;;2.40;1.00;;;;;;;10.46;100.00;94319.09;5092606;28;20531;-54
2022/04/07 05:17:55;;;;;;;0.70;0.70;;;;;;;11.01;100.00;94344.56;5092504;28;20462;-53
2022/04/07 05:20:24;;;;;;;1.23;1.23;;;;;;;11.25;100.00;94350.47;5092546;28;20441;-53
2022/04/07 05:22:52;;;;;;;0.80;0.80;;;;;;;11.25;99.29;94347.81;5092278;28;20554;-53
2022/04/07 05:25:22;;;;;;;1.97;1.87;;;;;;;11.25;100.00;94344.34;5092517;28;20845;-53
2022/04/07 05:27:56;;;;;;;1.17;1.07;;;;;;;11.18;100.00;94339.44;5091776;28;20448;-53
2022/04/07 05:30:24;;;;;;;0.60;0.60;;;;;;;10.97;100.00;94342.81;5092354;28;20460;-52
2022/04/07 05:32:53;;;;;;;2.50;2.40;;;;;;;11.31;100.00;94338.63;5092217;28;20793;-53
2022/04/07 05:35:21;;;;;;;0.97;0.40;;;;;;;11.71;98.44;94350.31;5092766;28;20479;-52
2022/04/07 05:37:50;;;;;;;4.23;2.00;;;;;;;11.34;99.11;94343.34;5092380;28;20472;-54
2022/04/07 05:40:18;;;;;;;2.13;1.83;;;;;;;10.71;100.00;94339.84;5092012;28;20440;-53
2022/04/07 05:42:48;;;;;;;1.50;1.00;;;;;;;10.52;100.00;94324.03;5092215;28;20515;-53
2022/04/07 05:45:17;;;;;;;1.13;1.13;;;;;;;10.47;100.00;94324.13;5092109;28;20440;-52
2022/04/07 05:47:46;;;;;;;2.00;0.90;;;;;;;10.49;100.00;94313.22;5092259;28;20542;-52
2022/04/07 05:50:14;;;;;;;0.77;0.77;;;;;;;11.08;100.00;94323.72;5092358;28;20456;-52
2022/04/07 05:52:42;;;;;;;1.97;1.30;;;;;;;11.62;100.00;94324.72;5092237;28;20527;-52
2022/04/07 05:55:11;;;;;;;0.93;0.90;;;;;;;11.24;100.00;94318.91;5091762;28;20485;-52
2022/04/07 05:57:39;;;;;;;0.67;0.67;;;;;;;11.47;100.00;94313.38;5092517;28;20427;-53
2022/04/07 06:00:12;;;;;;;1.00;0.90;;;;;;;11.36;100.00;94314.66;5091909;28;20960;-53
2022/04/07 06:02:41;;;;;;;0.50;0.37;;;;;;;11.37;100.00;94300.31;5092136;28;20517;-53
2022/04/07 06:05:11;;;;;;;0.30;0.20;;;;;;;11.54;100.00;94318.25;5092128;28;20436;-53
2022/04/07 06:07:39;;;;;;;1.53;0.53;;;;;;;10.30;98.54;94119.16;5092103;28;20492;-54
2022/04/07 06:10:09;;;;;;;0.40;0.30;;;;;;;11.55;97.54;94313.75;5090623;28;20519;-53
2022/04/07 06:12:38;;;;;;;0.40;0.40;;;;;;;12.06;91.58;94314.97;5091707;28;20429;-54
2022/04/07 06:15:09;;;;;;;1.27;1.17;;;;;;;11.94;92.71;94311.28;5091711;28;20440;-54
2022/04/07 06:17:54;;;;;;;0.50;0.47;;;;;;;11.39;98.79;94290.19;5091446;28;20482;-54
2022/04/07 06:20:22;;;;;;;0.60;0.60;;;;;;;11.67;98.73;94298.88;5092055;28;20456;-53
2022/04/07 06:22:51;;;;;;;0.33;0.30;;;;;;;11.38;96.79;94298.47;5091624;28;20479;-52
2022/04/07 06:25:19;;;;;;;1.13;1.13;;;;;;;11.12;100.00;94297.41;5091623;28;20456;-53
2022/04/07 06:27:48;;;;;;;0.40;0.40;;;;;;;11.33;100.00;94285.31;5091593;28;20555;-52
2022/04/07 06:30:19;;;;;;;0.40;0.30;;;;;;;11.18;98.93;94288.28;5091906;28;20536;-53
2022/04/07 06:32:49;;;;;;;0.40;0.30;;;;;;;11.55;98.22;94281.91;5091971;28;20463;-52
2022/04/07 06:35:18;;;;;;;2.70;1.27;;;;;;;11.15;99.62;94254.41;5092086;28;20429;-52
2022/04/07 06:37:51;;;;;;;5.20;1.03;;;;;;;11.43;99.63;94269.94;5091777;28;20956;-53
2022/04/07 06:40:21;;;;;;;0.30;0.30;;;;;;;11.75;96.71;94270.84;5091515;28;20522;-53
2022/04/07 06:42:50;;;;;;;0.57;0.57;;;;;;;11.47;96.68;94249.69;5091514;28;20432;-53
2022/04/07 06:45:26;;;;;;;0.97;0.87;;;;;;;11.36;97.48;94264.25;5093196;28;20419;-54
2022/04/07 06:47:56;;;;;;;2.10;2.00;;;;;;;11.47;98.13;94257.66;5095749;28;20554;-55
2022/04/07 06:50:25;;;;;;;0.60;0.50;;;;;;;11.40;98.43;94254.63;5095593;28;20425;-53
2022/04/07 06:52:55;;;;;;;1.63;0.60;;;;;;;11.55;95.47;94244.75;5095626;28;20520;-53
2022/04/07 06:55:24;;;;;;;0.80;0.80;;;;;;;11.29;100.00;94242.66;5095797;28;20481;-52
2022/04/07 06:57:54;;;;;;;1.07;0.80;;;;;;;10.99;100.00;94253.16;5095293;28;20424;-52
2022/04/07 07:00:27;;;;;;;0.63;0.63;;;;;;;11.13;100.00;94251.28;5095099;28;20437;-53
2022/04/07 07:02:57;;;;;;;0.60;0.60;;;;;;;11.18;100.00;94253.81;5095218;28;20481;-53
2022/04/07 07:05:28;;;;;;;2.13;0.57;;;;;;;10.77;100.00;94246.72;5094324;28;20432;-53
2022/04/07 07:07:56;;;;;;;0.63;0.63;;;;;;;11.21;100.00;94234.63;5095078;28;20564;-53
2022/04/07 07:10:28;;;;;;;0.40;0.40;;;;;;;11.42;100.00;94238.41;5095289;28;20476;-53
2022/04/07 07:12:59;;;;;;;0.43;0.43;;;;;;;11.54;100.00;94243.97;5095476;28;20470;-53
2022/04/07 07:15:29;;;;;;;0.50;0.50;;;;;;;11.76;97.19;94229.97;5095183;28;20428;-54
2022/04/07 07:17:58;;;;;;;1.23;1.13;;;;;;;11.57;100.00;94234.63;5095358;28;20479;-52
2022/04/07 07:20:26;;;;;;;0.30;0.30;;;;;;;11.87;98.70;94233.91;5095385;28;20436;-54
2022/04/07 07:22:55;;;;;;;0.40;0.40;;;;;;;11.56;100.00;94246.31;5093907;28;20935;-52
2022/04/07 07:25:23;;;;;;;0.50;0.50;;;;;;;11.89;99.19;94240.50;5094878;28;20511;-53
2022/04/07 07:27:52;;;;;;;1.07;1.07;;;;;;;12.14;94.43;94246.28;5094719;28;20515;-53
2022/04/07 07:30:21;;;;;;;0.40;0.30;;;;;;;11.59;93.76;94166.88;5094709;28;20425;-52
2022/04/07 07:32:54;;;;;;;0.40;0.30;;;;;;;12.10;92.38;94227.50;5094409;28;20855;-52
2022/04/07 07:35:24;;;;;;;3.13;0.87;;;;;;;11.88;94.61;94222.22;5094608;28;20494;-52
2022/04/07 07:37:53;;;;;;;0.40;0.40;;;;;;;11.71;97.87;94227.44;5095012;28;20485;-52
2022/04/07 07:40:23;;;;;;;0.80;0.70;;;;;;;11.69;98.48;94233.00;5093729;28;20850;-53
2022/04/07 07:42:55;;;;;;;0.47;0.43;;;;;;;11.47;100.00;94236.44;5094460;28;20960;-53
2022/04/07 07:45:25;;;;;;;1.57;0.80;;;;;;;11.16;100.00;94232.09;5094421;28;20432;-53
2022/04/07 07:48:14;;;;;;;0.40;0.30;;;;;;;11.63;100.00;94220.16;5093682;28;20578;-53
2022/04/07 07:50:46;;;;;;;1.13;1.13;;;;;;;11.20;99.41;94103.13;5094602;28;20428;-52
2022/04/07 07:53:17;;;;;;;0.50;0.50;;;;;;;12.31;95.50;94212.59;5094216;28;20514;-53
2022/04/07 07:55:46;;;;;;;0.40;0.40;;;;;;;12.13;97.64;94180.94;5093090;28;20456;-53
2022/04/07 07:58:15;;;;;;;0.50;0.50;;;;;;;12.32;93.77;94182.28;5093737;28;20432;-53
2022/04/07 08:00:43;;;;;;;0.50;0.40;;;;;;;12.26;93.40;94188.03;5094503;28;20445;-53
2022/04/07 08:03:12;;;;;;;0.70;0.70;;;;;;;12.50;92.04;94183.91;5094273;28;20519;-52
2022/04/07 08:05:42;;;;;;;0.30;0.30;;;;;;;12.77;86.54;94181.00;5094081;28;20432;-53
2022/04/07 08:08:12;;;;;;;1.53;1.43;;;;;;;13.17;82.96;94173.75;5094071;28;20987;-53
2022/04/07 08:10:40;;;;;;;0.70;0.70;;;;;;;12.49;83.96;94168.28;5094035;28;20510;-52
2022/04/07 08:13:10;;;;;;;0.97;0.50;;;;;;;12.65;88.84;94174.72;5094154;28;20519;-52
2022/04/07 08:15:38;;;;;;;0.50;0.50;;;;;;;12.09;96.48;94172.81;5093974;28;20425;-52
2022/04/07 08:18:08;;;;;;;0.80;0.80;;;;;;;12.25;95.61;94171.31;5094166;28;20504;-53
2022/04/07 08:20:37;;;;;;;1.30;1.30;;;;;;;12.74;90.57;94157.72;5093736;28;20515;-52
2022/04/07 08:23:06;;;;;;;0.60;0.60;;;;;;;12.45;94.81;94138.09;5093705;28;20464;-52
2022/04/07 08:25:35;;;;;;;0.70;0.70;;;;;;;12.72;83.60;94141.28;5092725;28;20468;-52
2022/04/07 08:28:03;;;;;;;0.53;0.50;;;;;;;12.68;86.24;94148.31;5093695;28;20537;-52
2022/04/07 08:30:34;;;;;;;2.33;0.40;;;;;;;12.87;84.17;94137.41;5093487;28;20920;-53
2022/04/07 08:33:03;;;;;;;1.67;1.57;;;;;;;13.10;81.68;94127.44;5093626;28;20815;-53
2022/04/07 08:35:32;;;;;;;0.43;0.30;;;;;;;12.91;84.02;94124.25;5093152;28;20925;-53
2022/04/07 08:38:00;;;;;;;1.87;1.77;;;;;;;12.86;84.45;94108.44;5093581;28;20456;-53
2022/04/07 08:40:32;;;;;;;0.50;0.50;;;;;;;13.21;80.98;94118.00;5093773;28;20452;-53
2022/04/07 08:43:00;;;;;;;10.83;2.33;;;;;;;13.11;76.89;94107.69;5093570;28;20464;-53
2022/04/07 08:45:30;;;;;;;0.40;0.40;;;;;;;12.91;80.43;94100.31;5093026;28;20993;-53
2022/04/07 08:47:59;;;;;;;1.17;0.80;;;;;;;13.03;80.83;94101.25;5093279;28;20529;-52
2022/04/07 08:50:28;;;;;;;1.80;0.53;;;;;;;13.53;76.11;94095.44;5093362;28;20460;-53
2022/04/07 08:52:58;;;;;;;1.17;0.43;;;;;;;13.60;73.63;94095.75;5093218;28;20456;-53
2022/04/07 08:55:26;;;;;;;0.40;0.40;;;;;;;13.70;75.71;94085.53;5093040;28;20431;-53
2022/04/07 08:57:56;;;;;;;2.73;0.50;;;;;;;13.95;70.93;94086.53;5093034;28;20458;-53
2022/04/07 09:00:24;;;;;;;0.90;0.90;;;;;;;13.22;76.82;94071.69;5093061;28;20850;-53
2022/04/07 09:02:53;;;;;;;0.50;0.50;;;;;;;13.35;81.08;94079.53;5093281;28;20432;-53
2022/04/07 09:05:24;;;;;;;0.90;0.90;;;;;;;13.54;81.48;94068.50;5092950;28;20468;-53
2022/04/07 09:07:54;;;;;;;1.20;1.10;;;;;;;13.30;82.50;94066.38;5092015;28;20468;-51
2022/04/07 09:10:25;;;;;;;1.17;1.17;;;;;;;13.63;79.21;94066.59;5092589;28;20464;-52
2022/04/07 09:12:53;;;;;;;0.40;0.40;;;;;;;13.75;78.07;94045.41;5092984;28;20463;-52
2022/04/07 09:15:27;;;;;;;3.60;0.50;;;;;;;13.68;74.64;94007.88;5092937;28;20420;-52
2022/04/07 09:17:56;;;;;;;1.50;0.50;;;;;;;13.74;71.86;94033.19;5093234;28;20506;-52
2022/04/07 09:20:25;;;;;;;0.87;0.40;;;;;;;13.50;67.37;94013.56;5092892;28;20875;-52
2022/04/07 09:22:57;;;;;;;1.60;0.93;;;;;;;14.22;59.01;94014.16;5092765;28;20436;-53
2022/04/07 09:25:26;;;;;;;0.30;0.20;;;;;;;14.91;52.15;94009.13;5092223;28;20424;-52
2022/04/07 09:27:57;;;;;;;0.60;0.57;;;;;;;15.74;49.82;94003.56;5092401;28;20494;-52
2022/04/07 09:30:37;;;;;;;0.50;0.50;;;;;;;16.17;47.37;93986.97;5092652;28;20435;-52
2022/04/07 09:33:06;;;;;;;0.50;0.37;;;;;;;15.74;50.38;93976.84;5092523;28;20431;-52
2022/04/07 09:35:34;;;;;;;0.50;0.50;;;;;;;15.62;50.16;93982.19;5092203;28;20490;-51
2022/04/07 09:38:03;;;;;;;0.40;0.40;;;;;;;14.92;49.34;93981.34;5092478;28;20428;-51
2022/04/07 09:40:32;;;;;;;0.83;0.83;;;;;;;14.77;49.75;93978.50;5092239;28;20971;-51
2022/04/07 09:43:00;;;;;;;0.43;0.40;;;;;;;15.35;49.26;93961.44;5092132;28;20433;-52
2022/04/07 09:45:30;;;;;;;0.60;0.40;;;;;;;15.38;50.64;93961.53;5092324;28;20456;-51
2022/04/07 09:48:18;;;;;;;0.40;0.40;;;;;;;15.93;48.33;93941.56;5092263;28;20624;-52
2022/04/07 09:51:03;;;;;;;1.83;0.50;;;;;;;17.63;43.95;93934.47;5092195;28;20453;-53
2022/04/07 09:53:36;;;;;;;0.50;0.40;;;;;;;19.49;38.71;93926.09;5092179;28;20437;-53
2022/04/07 09:56:06;;;;;;;2.27;0.67;;;;;;;20.57;34.97;93930.78;5092105;28;20433;-55
2022/04/07 09:58:36;;;;;;;1.37;0.70;;;;;;;20.55;32.00;93927.69;5092051;28;20435;-56
2022/04/07 10:01:06;;;;;;;0.63;0.63;;;;;;;20.06;34.87;93922.41;5092437;28;20420;-56
2022/04/07 10:03:35;;;;;;;0.77;0.77;;;;;;;18.87;32.85;93924.56;5092251;28;20432;-56
2022/04/07 10:06:05;;;;;;;0.77;0.50;;;;;;;18.28;35.14;93911.44;5091840;28;20971;-57
2022/04/07 10:08:36;;;;;;;0.70;0.63;;;;;;;18.70;33.62;93916.91;5091955;28;20537;-56
2022/04/07 10:11:05;;;;;;;0.57;0.43;;;;;;;18.33;34.61;93913.84;5092087;28;20496;-56
2022/04/07 10:13:34;;;;;;;0.40;0.33;;;;;;;18.72;37.44;93920.03;5091802;28;20432;-55
2022/04/07 10:16:03;;;;;;;0.77;0.77;;;;;;;17.90;40.06;93903.31;5091968;28;20424;-55
2022/04/07 10:18:41;;;;;;;0.80;0.80;;;;;;;18.37;39.20;93903.94;5091966;28;20501;-55
2022/04/07 10:21:17;;;;;;;0.53;0.50;;;;;;;18.15;41.08;93907.31;5096085;28;20419;-56
2022/04/07 10:23:55;;;;;;;0.50;0.37;;;;;;;17.98;43.31;93899.66;5096021;28;20463;-56
2022/04/07 10:26:26;;;;;;;5.20;1.37;;;;;;;16.49;43.24;93814.88;5096298;28;20452;-55
2022/04/07 10:28:56;;;;;;;0.90;0.90;;;;;;;16.87;42.21;93894.66;5095934;28;20467;-55
2022/04/07 10:31:25;;;;;;;5.43;1.13;;;;;;;17.01;44.68;93886.97;5096062;28;20436;-55
2022/04/07 10:34:05;;;;;;;1.13;0.50;;;;;;;18.23;41.89;93866.13;5096051;28;20428;-56
2022/04/07 10:36:39;;;;;;;0.50;0.37;;;;;;;18.56;39.00;93869.13;5095752;28;20432;-57
2022/04/07 10:39:17;;;;;;;0.40;0.30;;;;;;;19.53;41.00;93851.69;5096037;28;20432;-57
2022/04/07 10:41:49;;;;;;;0.60;0.60;;;;;;;19.22;37.82;93862.66;5096091;28;20587;-58
2022/04/07 10:44:19;;;;;;;0.40;0.40;;;;;;;19.42;37.21;93864.94;5095725;28;20470;-58
2022/04/07 10:46:48;;;;;;;0.40;0.20;;;;;;;18.43;38.96;93717.47;5095870;28;20424;-59
2022/04/07 10:49:24;;;;;;;0.50;0.30;;;;;;;19.36;37.02;93809.94;5095294;28;20460;-59
2022/04/07 10:51:54;;;;;;;0.90;0.80;;;;;;;20.07;34.88;93867.44;5095899;28;20416;-59
2022/04/07 10:54:23;;;;;;;0.40;0.30;;;;;;;19.29;35.41;93860.88;5095692;28;20444;-58
2022/04/07 10:56:53;;;;;;;2.23;0.43;;;;;;;19.21;37.52;93872.63;5095609;28;20458;-58
2022/04/07 10:59:23;;;;;;;0.77;0.77;;;;;;;17.83;39.61;93869.09;5095377;28;20503;-58
2022/04/07 11:01:56;;;;;;;1.53;0.50;;;;;;;18.03;40.48;93851.91;5095661;28;20869;-58
2022/04/07 11:04:53;;;;;;;0.63;0.43;;;;;;;17.69;39.62;93864.19;5095041;28;20428;-57
2022/04/07 11:07:22;;;;;;;0.60;0.40;;;;;;;17.71;39.76;93856.56;5078659;28;20940;-57
2022/04/07 11:10:05;;;;;;;0.40;0.30;;;;;;;18.26;42.89;93862.75;5094654;28;20531;-57
2022/04/07 11:12:37;;;;;;;0.40;0.30;;;;;;;18.27;39.53;93889.19;5095136;28;20464;-57
2022/04/07 11:15:27;;;;;;;7.83;0.60;;;;;;;18.42;38.44;93897.56;5095160;28;20511;-55
2022/04/07 11:18:00;;;;;;;1.83;0.60;;;;;;;18.52;40.37;93889.72;5094959;28;20916;-56
2022/04/07 11:20:30;;;;;;;0.50;0.40;;;;;;;17.92;41.66;93876.94;5095154;28;20428;-56
2022/04/07 11:23:01;;;;;;;0.67;0.40;;;;;;;17.12;42.53;93870.06;5095644;28;20428;-56
2022/04/07 11:25:31;;;;;;;0.50;0.40;;;;;;;16.84;45.86;93866.69;5094737;28;20424;-56
2022/04/07 11:28:05;;;;;;;0.70;0.67;;;;;;;16.87;50.41;93859.84;5095337;28;20428;-55
2022/04/07 11:30:46;;;;;;;1.10;0.87;;;;;;;17.65;48.97;93852.63;5095307;28;20541;-56
2022/04/07 11:33:37;;;;;;;0.70;0.67;;;;;;;19.18;45.91;93849.16;5095806;28;20818;-60
2022/04/07 11:36:14;;;;;;;0.70;0.67;;;;;;;19.08;43.30;93859.72;5099189;28;20448;-60
2022/04/07 11:38:45;;;;;;;0.50;0.50;;;;;;;18.92;40.98;93833.75;5099271;28;20424;-58
2022/04/07 11:41:15;;;;;;;3.90;1.10;;;;;;;18.41;41.92;93845.81;5097376;28;20412;-56
2022/04/07 11:43:46;;;;;;;0.60;0.57;;;;;;;17.44;44.25;93856.66;5098601;28;20425;-59
2022/04/07 11:46:15;;;;;;;26.43;0.53;;;;;;;17.13;46.06;93836.03;5096473;28;20428;-60